Gravel Beach, Indiana
Current Conditions -  °F | °C
As of 6:35 AM on Monday 22 Dec 2014 (Local Time) from KANQ Reporting Station
Clear Clear  
Wind Chill: 17°   Ceiling: Unl
Heat Index: 25°   Visibility: 8mi
Dew Point: 21°   Wind: 7mph
Humidity: 86%   Direction: 130°SE
Pressure: 30.03"   Gusts: NA
Location:  41.5628°N, 85.1391°W
Report Text: KANQ 221135Z AUTO 13006KT 8SM CLR M04/M06 A3003 RMK
Loading
Personal Weather Stations






























Interactive Weather Map New forecast layout! Learn more

10-Day Weather Forecast

Advertisements
Track Severe Weather on mobile